<?xml version="1.0" encoding="UTF-8" standalone="no" ?>
<gpx xmlns="http://www.topografix.com/GPX/1/1" xmlns:xsi="http://www.w3.org/2001/XMLSchema-instance" xsi:schemaLocation="http://www.topografix.com/GPX/1/1 http://www.topografix.com/GPX/1/1/gpx.xsd" version="1.1" creator="VisuGPX - https://www.visugpx.com">
  <metadata>
    <name>Tout autour de La Chaise Dieu ou Casa Dei</name>
    <desc><![CDATA[prépa séjour]]></desc>
  </metadata>
  <wpt lat="45.3163" lon="3.69677">
    <ele>1085</ele>
    <name><![CDATA[Parking de la gare ]]></name>
  </wpt>
  <wpt lat="45.32473" lon="3.69876">
    <ele>1066</ele>
    <name><![CDATA[Carrefour, poursuivre tout droit, direction Nord]]></name>
  </wpt>
  <wpt lat="45.33013" lon="3.69872">
    <ele>1056</ele>
    <name><![CDATA[Embranchement, prendre à gauche direction Baffour]]></name>
  </wpt>
  <wpt lat="45.33723" lon="3.68609">
    <ele>1042</ele>
    <name><![CDATA[A Mozun, prendre chemin à droite des maisons]]></name>
  </wpt>
  <wpt lat="45.33321" lon="3.67792">
    <ele>1062</ele>
    <name><![CDATA[Bifurcation : emprunter le chemin de gauche]]></name>
  </wpt>
  <wpt lat="45.32699" lon="3.67473">
    <ele>997</ele>
    <name><![CDATA[Après pont voie ferrée, prendre route à droite]]></name>
  </wpt>
  <wpt lat="45.32527" lon="3.66835">
    <ele>947</ele>
    <name><![CDATA[Carrefour: prendre à gauche, direction Sud-Est]]></name>
  </wpt>
  <wpt lat="45.32408" lon="3.67183">
    <ele>958</ele>
    <name><![CDATA[Embranchement : suivre le GRP à droite]]></name>
  </wpt>
  <wpt lat="45.31867" lon="3.66994">
    <ele>948</ele>
    <name><![CDATA[Bifurcation : prendre à gauche]]></name>
  </wpt>
  <wpt lat="45.31475" lon="3.6687">
    <ele>919</ele>
    <name><![CDATA[Au devant du ruisseau, tourner à gauche]]></name>
  </wpt>
  <wpt lat="45.31441" lon="3.6769">
    <ele>968</ele>
    <name><![CDATA[Carrefour (antenne-relais) suivre piste à gauche.]]></name>
  </wpt>
  <wpt lat="45.31808" lon="3.69359">
    <ele>1049</ele>
    <name><![CDATA[D4, traverser et continuer à gauche]]></name>
  </wpt>
  <wpt lat="45.31629" lon="3.69679">
    <ele>1085</ele>
    <name><![CDATA[Parking de la gare]]></name>
  </wpt>
  <trk>
    <name><![CDATA[Tout autour de La Chaise Dieu ou Casa Dei]]></name>
    <trkseg>
      <trkpt lat="45.3163" lon="3.69677">
        <ele>1085</ele>
        <time>2016-10-15T11:34:33+02:00</time>
      </trkpt>
      <trkpt lat="45.31649" lon="3.69653">
        <ele>1083</ele>
        <time>2016-10-15T11:38:00+02:00</time>
      </trkpt>
      <trkpt lat="45.3165" lon="3.69629">
        <ele>1081</ele>
        <time>2016-10-15T11:38:31+02:00</time>
      </trkpt>
      <trkpt lat="45.31696" lon="3.6962">
        <ele>1080</ele>
        <time>2016-10-15T11:38:52+02:00</time>
      </trkpt>
      <trkpt lat="45.31722" lon="3.69612">
        <ele>1078</ele>
        <time>2016-10-15T11:39:22+02:00</time>
      </trkpt>
      <trkpt lat="45.3175" lon="3.69605">
        <ele>1077</ele>
        <time>2016-10-15T11:39:44+02:00</time>
      </trkpt>
      <trkpt lat="45.31777" lon="3.696">
        <ele>1075</ele>
        <time>2016-10-15T11:40:07+02:00</time>
      </trkpt>
      <trkpt lat="45.31806" lon="3.69598">
        <ele>1073</ele>
        <time>2016-10-15T11:40:33+02:00</time>
      </trkpt>
      <trkpt lat="45.31834" lon="3.69598">
        <ele>1072</ele>
        <time>2016-10-15T11:40:57+02:00</time>
      </trkpt>
      <trkpt lat="45.31861" lon="3.696">
        <ele>1070</ele>
        <time>2016-10-15T11:41:30+02:00</time>
      </trkpt>
      <trkpt lat="45.31889" lon="3.69601">
        <ele>1069</ele>
        <time>2016-10-15T11:41:53+02:00</time>
      </trkpt>
      <trkpt lat="45.31917" lon="3.69601">
        <ele>1067</ele>
        <time>2016-10-15T11:42:23+02:00</time>
      </trkpt>
      <trkpt lat="45.31944" lon="3.69595">
        <ele>1067</ele>
        <time>2016-10-15T11:42:47+02:00</time>
      </trkpt>
      <trkpt lat="45.31972" lon="3.6958">
        <ele>1066</ele>
        <time>2016-10-15T11:43:18+02:00</time>
      </trkpt>
      <trkpt lat="45.32001" lon="3.69573">
        <ele>1065</ele>
        <time>2016-10-15T11:43:35+02:00</time>
      </trkpt>
      <trkpt lat="45.32025" lon="3.69573">
        <ele>1066</ele>
        <time>2016-10-15T11:44:24+02:00</time>
      </trkpt>
      <trkpt lat="45.32052" lon="3.69564">
        <ele>1066</ele>
        <time>2016-10-15T11:44:54+02:00</time>
      </trkpt>
      <trkpt lat="45.32079" lon="3.69553">
        <ele>1066</ele>
        <time>2016-10-15T11:45:31+02:00</time>
      </trkpt>
      <trkpt lat="45.3211" lon="3.69537">
        <ele>1064</ele>
        <time>2016-10-15T11:46:09+02:00</time>
      </trkpt>
      <trkpt lat="45.32138" lon="3.6955">
        <ele>1064</ele>
        <time>2016-10-15T11:46:31+02:00</time>
      </trkpt>
      <trkpt lat="45.32141" lon="3.69572">
        <ele>1066</ele>
        <time>2016-10-15T11:47:53+02:00</time>
      </trkpt>
      <trkpt lat="45.32132" lon="3.69588">
        <ele>1067</ele>
      </trkpt>
      <trkpt lat="45.32133" lon="3.6963">
        <ele>1069</ele>
        <time>2016-10-15T11:48:12+02:00</time>
      </trkpt>
      <trkpt lat="45.32127" lon="3.69662">
        <ele>1072</ele>
        <time>2016-10-15T11:48:40+02:00</time>
      </trkpt>
      <trkpt lat="45.3211" lon="3.6969">
        <ele>1074</ele>
        <time>2016-10-15T11:49:06+02:00</time>
      </trkpt>
      <trkpt lat="45.3211" lon="3.69738">
        <ele>1075</ele>
        <time>2016-10-15T11:50:23+02:00</time>
      </trkpt>
      <trkpt lat="45.32125" lon="3.69779">
        <ele>1076</ele>
        <time>2016-10-15T11:51:55+02:00</time>
      </trkpt>
      <trkpt lat="45.32154" lon="3.69776">
        <ele>1076</ele>
        <time>2016-10-15T11:52:23+02:00</time>
      </trkpt>
      <trkpt lat="45.32188" lon="3.69776">
        <ele>1075</ele>
        <time>2016-10-15T11:52:52+02:00</time>
      </trkpt>
      <trkpt lat="45.32214" lon="3.69769">
        <ele>1075</ele>
        <time>2016-10-15T11:53:17+02:00</time>
      </trkpt>
      <trkpt lat="45.32235" lon="3.69768">
        <ele>1074</ele>
        <time>2016-10-15T11:53:42+02:00</time>
      </trkpt>
      <trkpt lat="45.32265" lon="3.69769">
        <ele>1073</ele>
        <time>2016-10-15T11:54:10+02:00</time>
      </trkpt>
      <trkpt lat="45.32289" lon="3.69776">
        <ele>1072</ele>
        <time>2016-10-15T11:54:33+02:00</time>
      </trkpt>
      <trkpt lat="45.32315" lon="3.6979">
        <ele>1072</ele>
        <time>2016-10-15T11:55:05+02:00</time>
      </trkpt>
      <trkpt lat="45.32341" lon="3.69802">
        <ele>1071</ele>
        <time>2016-10-15T11:55:30+02:00</time>
      </trkpt>
      <trkpt lat="45.32367" lon="3.69814">
        <ele>1070</ele>
        <time>2016-10-15T11:55:56+02:00</time>
      </trkpt>
      <trkpt lat="45.32394" lon="3.69828">
        <ele>1069</ele>
        <time>2016-10-15T11:56:20+02:00</time>
      </trkpt>
      <trkpt lat="45.32419" lon="3.69843">
        <ele>1068</ele>
        <time>2016-10-15T11:56:53+02:00</time>
      </trkpt>
      <trkpt lat="45.32444" lon="3.6986">
        <ele>1068</ele>
        <time>2016-10-15T11:57:12+02:00</time>
      </trkpt>
      <trkpt lat="45.32473" lon="3.69876">
        <ele>1066</ele>
        <time>2016-10-15T11:58:36+02:00</time>
      </trkpt>
      <trkpt lat="45.32493" lon="3.69882">
        <ele>1066</ele>
        <time>2016-10-15T11:59:08+02:00</time>
      </trkpt>
      <trkpt lat="45.32521" lon="3.69894">
        <ele>1065</ele>
        <time>2016-10-15T11:59:38+02:00</time>
      </trkpt>
      <trkpt lat="45.3254" lon="3.69912">
        <ele>1064</ele>
        <time>2016-10-15T12:00:09+02:00</time>
      </trkpt>
      <trkpt lat="45.32567" lon="3.69931">
        <ele>1063</ele>
        <time>2016-10-15T12:00:30+02:00</time>
      </trkpt>
      <trkpt lat="45.32598" lon="3.6995">
        <ele>1061</ele>
        <time>2016-10-15T12:01:00+02:00</time>
      </trkpt>
      <trkpt lat="45.32625" lon="3.69965">
        <ele>1060</ele>
        <time>2016-10-15T12:01:19+02:00</time>
      </trkpt>
      <trkpt lat="45.32653" lon="3.6998">
        <ele>1060</ele>
        <time>2016-10-15T12:01:48+02:00</time>
      </trkpt>
      <trkpt lat="45.32673" lon="3.69987">
        <ele>1060</ele>
        <time>2016-10-15T12:02:14+02:00</time>
      </trkpt>
      <trkpt lat="45.32704" lon="3.69997">
        <ele>1060</ele>
        <time>2016-10-15T12:02:34+02:00</time>
      </trkpt>
      <trkpt lat="45.32728" lon="3.70003">
        <ele>1059</ele>
        <time>2016-10-15T12:02:56+02:00</time>
      </trkpt>
      <trkpt lat="45.32755" lon="3.69999">
        <ele>1059</ele>
        <time>2016-10-15T12:03:23+02:00</time>
      </trkpt>
      <trkpt lat="45.32782" lon="3.69994">
        <ele>1058</ele>
        <time>2016-10-15T12:03:53+02:00</time>
      </trkpt>
      <trkpt lat="45.32808" lon="3.69982">
        <ele>1058</ele>
        <time>2016-10-15T12:04:32+02:00</time>
      </trkpt>
      <trkpt lat="45.32834" lon="3.69964">
        <ele>1059</ele>
        <time>2016-10-15T12:04:50+02:00</time>
      </trkpt>
      <trkpt lat="45.3286" lon="3.69956">
        <ele>1057</ele>
        <time>2016-10-15T12:05:09+02:00</time>
      </trkpt>
      <trkpt lat="45.32884" lon="3.69939">
        <ele>1057</ele>
        <time>2016-10-15T12:05:43+02:00</time>
      </trkpt>
      <trkpt lat="45.32914" lon="3.69921">
        <ele>1056</ele>
        <time>2016-10-15T12:06:05+02:00</time>
      </trkpt>
      <trkpt lat="45.32934" lon="3.69904">
        <ele>1056</ele>
        <time>2016-10-15T12:06:33+02:00</time>
      </trkpt>
      <trkpt lat="45.32961" lon="3.69896">
        <ele>1056</ele>
        <time>2016-10-15T12:06:52+02:00</time>
      </trkpt>
      <trkpt lat="45.32987" lon="3.69881">
        <ele>1056</ele>
        <time>2016-10-15T12:07:18+02:00</time>
      </trkpt>
      <trkpt lat="45.33013" lon="3.69872">
        <ele>1056</ele>
        <time>2016-10-15T12:08:55+02:00</time>
      </trkpt>
      <trkpt lat="45.3304" lon="3.69859">
        <ele>1056</ele>
        <time>2016-10-15T12:09:41+02:00</time>
      </trkpt>
      <trkpt lat="45.33066" lon="3.69845">
        <ele>1056</ele>
        <time>2016-10-15T12:09:59+02:00</time>
      </trkpt>
      <trkpt lat="45.33091" lon="3.69829">
        <ele>1055</ele>
        <time>2016-10-15T12:10:36+02:00</time>
      </trkpt>
      <trkpt lat="45.33116" lon="3.69811">
        <ele>1053</ele>
        <time>2016-10-15T12:11:01+02:00</time>
      </trkpt>
      <trkpt lat="45.33139" lon="3.6979">
        <ele>1052</ele>
        <time>2016-10-15T12:11:43+02:00</time>
      </trkpt>
      <trkpt lat="45.33168" lon="3.69771">
        <ele>1050</ele>
        <time>2016-10-15T12:11:59+02:00</time>
      </trkpt>
      <trkpt lat="45.3319" lon="3.69756">
        <ele>1049</ele>
        <time>2016-10-15T12:12:22+02:00</time>
      </trkpt>
      <trkpt lat="45.33214" lon="3.69739">
        <ele>1047</ele>
        <time>2016-10-15T12:12:48+02:00</time>
      </trkpt>
      <trkpt lat="45.33241" lon="3.6973">
        <ele>1045</ele>
        <time>2016-10-15T12:13:13+02:00</time>
      </trkpt>
      <trkpt lat="45.33267" lon="3.69722">
        <ele>1044</ele>
        <time>2016-10-15T12:13:34+02:00</time>
      </trkpt>
      <trkpt lat="45.33293" lon="3.69709">
        <ele>1043</ele>
        <time>2016-10-15T12:14:00+02:00</time>
      </trkpt>
      <trkpt lat="45.3332" lon="3.69701">
        <ele>1042</ele>
        <time>2016-10-15T12:14:29+02:00</time>
      </trkpt>
      <trkpt lat="45.33345" lon="3.6969">
        <ele>1041</ele>
        <time>2016-10-15T12:14:47+02:00</time>
      </trkpt>
      <trkpt lat="45.3337" lon="3.69675">
        <ele>1041</ele>
        <time>2016-10-15T12:15:16+02:00</time>
      </trkpt>
      <trkpt lat="45.33396" lon="3.69658">
        <ele>1040</ele>
        <time>2016-10-15T12:15:42+02:00</time>
      </trkpt>
      <trkpt lat="45.33422" lon="3.69644">
        <ele>1039</ele>
        <time>2016-10-15T12:16:06+02:00</time>
      </trkpt>
      <trkpt lat="45.33448" lon="3.69632">
        <ele>1038</ele>
        <time>2016-10-15T12:16:33+02:00</time>
      </trkpt>
      <trkpt lat="45.33474" lon="3.69623">
        <ele>1037</ele>
        <time>2016-10-15T12:16:57+02:00</time>
      </trkpt>
      <trkpt lat="45.33499" lon="3.69609">
        <ele>1036</ele>
        <time>2016-10-15T12:17:29+02:00</time>
      </trkpt>
      <trkpt lat="45.33526" lon="3.69601">
        <ele>1035</ele>
        <time>2016-10-15T12:17:54+02:00</time>
      </trkpt>
      <trkpt lat="45.33554" lon="3.69596">
        <ele>1034</ele>
        <time>2016-10-15T12:18:26+02:00</time>
      </trkpt>
      <trkpt lat="45.33582" lon="3.69591">
        <ele>1032</ele>
        <time>2016-10-15T12:18:46+02:00</time>
      </trkpt>
      <trkpt lat="45.33609" lon="3.69589">
        <ele>1032</ele>
        <time>2016-10-15T12:19:14+02:00</time>
      </trkpt>
      <trkpt lat="45.33637" lon="3.69586">
        <ele>1031</ele>
        <time>2016-10-15T12:19:37+02:00</time>
      </trkpt>
      <trkpt lat="45.33664" lon="3.69585">
        <ele>1031</ele>
        <time>2016-10-15T12:20:12+02:00</time>
      </trkpt>
      <trkpt lat="45.33692" lon="3.69582">
        <ele>1031</ele>
        <time>2016-10-15T12:20:43+02:00</time>
      </trkpt>
      <trkpt lat="45.33719" lon="3.69578">
        <ele>1030</ele>
        <time>2016-10-15T12:21:14+02:00</time>
      </trkpt>
      <trkpt lat="45.33747" lon="3.69573">
        <ele>1030</ele>
        <time>2016-10-15T12:21:34+02:00</time>
      </trkpt>
      <trkpt lat="45.33774" lon="3.69572">
        <ele>1030</ele>
        <time>2016-10-15T12:21:56+02:00</time>
      </trkpt>
      <trkpt lat="45.33811" lon="3.69576">
        <ele>1031</ele>
        <time>2016-10-15T12:22:20+02:00</time>
      </trkpt>
      <trkpt lat="45.33828" lon="3.69563">
        <ele>1032</ele>
        <time>2016-10-15T12:23:04+02:00</time>
      </trkpt>
      <trkpt lat="45.33836" lon="3.69525">
        <ele>1035</ele>
        <time>2016-10-15T12:24:19+02:00</time>
      </trkpt>
      <trkpt lat="45.33841" lon="3.69491">
        <ele>1037</ele>
        <time>2016-10-15T12:24:47+02:00</time>
      </trkpt>
      <trkpt lat="45.33858" lon="3.69455">
        <ele>1039</ele>
        <time>2016-10-15T12:25:14+02:00</time>
      </trkpt>
      <trkpt lat="45.33863" lon="3.6942">
        <ele>1041</ele>
        <time>2016-10-15T12:25:43+02:00</time>
      </trkpt>
      <trkpt lat="45.33869" lon="3.69381">
        <ele>1043</ele>
        <time>2016-10-15T12:26:10+02:00</time>
      </trkpt>
      <trkpt lat="45.33876" lon="3.69341">
        <ele>1046</ele>
        <time>2016-10-15T12:26:59+02:00</time>
      </trkpt>
      <trkpt lat="45.33889" lon="3.69309">
        <ele>1047</ele>
        <time>2016-10-15T12:27:29+02:00</time>
      </trkpt>
      <trkpt lat="45.33896" lon="3.69274">
        <ele>1049</ele>
        <time>2016-10-15T12:28:12+02:00</time>
      </trkpt>
      <trkpt lat="45.33906" lon="3.69237">
        <ele>1049</ele>
        <time>2016-10-15T12:28:43+02:00</time>
      </trkpt>
      <trkpt lat="45.3391" lon="3.69196">
        <ele>1050</ele>
        <time>2016-10-15T12:29:11+02:00</time>
      </trkpt>
      <trkpt lat="45.33909" lon="3.69157">
        <ele>1050</ele>
        <time>2016-10-15T12:29:50+02:00</time>
      </trkpt>
      <trkpt lat="45.33905" lon="3.69119">
        <ele>1052</ele>
        <time>2016-10-15T12:30:59+02:00</time>
      </trkpt>
      <trkpt lat="45.33898" lon="3.69081">
        <ele>1053</ele>
        <time>2016-10-15T12:32:39+02:00</time>
      </trkpt>
      <trkpt lat="45.33888" lon="3.69045">
        <ele>1055</ele>
        <time>2016-10-15T12:33:02+02:00</time>
      </trkpt>
      <trkpt lat="45.33878" lon="3.69008">
        <ele>1056</ele>
        <time>2016-10-15T12:33:37+02:00</time>
      </trkpt>
      <trkpt lat="45.33844" lon="3.68924">
        <ele>1051</ele>
        <time>2016-10-15T12:35:07+02:00</time>
      </trkpt>
      <trkpt lat="45.33818" lon="3.68861">
        <ele>1048</ele>
        <time>2016-10-15T12:35:13+02:00</time>
      </trkpt>
      <trkpt lat="45.33782" lon="3.68824">
        <ele>1053</ele>
        <time>2016-10-15T12:36:10+02:00</time>
      </trkpt>
      <trkpt lat="45.33763" lon="3.68794">
        <ele>1053</ele>
        <time>2016-10-15T12:36:40+02:00</time>
      </trkpt>
      <trkpt lat="45.33747" lon="3.68762">
        <ele>1050</ele>
        <time>2016-10-15T12:37:03+02:00</time>
      </trkpt>
      <trkpt lat="45.33742" lon="3.68722">
        <ele>1046</ele>
        <time>2016-10-15T12:37:29+02:00</time>
      </trkpt>
      <trkpt lat="45.33741" lon="3.68684">
        <ele>1043</ele>
        <time>2016-10-15T12:39:00+02:00</time>
      </trkpt>
      <trkpt lat="45.33731" lon="3.68647">
        <ele>1042</ele>
        <time>2016-10-15T12:40:09+02:00</time>
      </trkpt>
      <trkpt lat="45.33723" lon="3.68609">
        <ele>1042</ele>
        <time>2016-10-15T12:41:49+02:00</time>
      </trkpt>
      <trkpt lat="45.33714" lon="3.68572">
        <ele>1042</ele>
        <time>2016-10-15T12:42:28+02:00</time>
      </trkpt>
      <trkpt lat="45.33717" lon="3.68533">
        <ele>1044</ele>
        <time>2016-10-15T12:43:14+02:00</time>
      </trkpt>
      <trkpt lat="45.33718" lon="3.68494">
        <ele>1047</ele>
        <time>2016-10-15T12:43:37+02:00</time>
      </trkpt>
      <trkpt lat="45.3371" lon="3.68457">
        <ele>1048</ele>
        <time>2016-10-15T12:44:06+02:00</time>
      </trkpt>
      <trkpt lat="45.33699" lon="3.6842">
        <ele>1049</ele>
        <time>2016-10-15T12:44:38+02:00</time>
      </trkpt>
      <trkpt lat="45.33687" lon="3.68385">
        <ele>1051</ele>
        <time>2016-10-15T12:45:04+02:00</time>
      </trkpt>
      <trkpt lat="45.33672" lon="3.68353">
        <ele>1052</ele>
        <time>2016-10-15T12:45:32+02:00</time>
      </trkpt>
      <trkpt lat="45.33658" lon="3.68322">
        <ele>1053</ele>
        <time>2016-10-15T12:45:55+02:00</time>
      </trkpt>
      <trkpt lat="45.33638" lon="3.68292">
        <ele>1053</ele>
        <time>2016-10-15T12:46:28+02:00</time>
      </trkpt>
      <trkpt lat="45.33631" lon="3.68255">
        <ele>1055</ele>
        <time>2016-10-15T12:46:58+02:00</time>
      </trkpt>
      <trkpt lat="45.33621" lon="3.68216">
        <ele>1058</ele>
        <time>2016-10-15T12:47:27+02:00</time>
      </trkpt>
      <trkpt lat="45.33608" lon="3.68179">
        <ele>1062</ele>
        <time>2016-10-15T12:48:05+02:00</time>
      </trkpt>
      <trkpt lat="45.3359" lon="3.68152">
        <ele>1065</ele>
        <time>2016-10-15T12:48:36+02:00</time>
      </trkpt>
      <trkpt lat="45.33576" lon="3.68136">
        <ele>1068</ele>
      </trkpt>
      <trkpt lat="45.33562" lon="3.68131">
        <ele>1068</ele>
        <time>2016-10-15T12:49:11+02:00</time>
      </trkpt>
      <trkpt lat="45.33536" lon="3.68116">
        <ele>1070</ele>
        <time>2016-10-15T12:49:57+02:00</time>
      </trkpt>
      <trkpt lat="45.33508" lon="3.68108">
        <ele>1069</ele>
        <time>2016-10-15T12:50:22+02:00</time>
      </trkpt>
      <trkpt lat="45.33484" lon="3.68095">
        <ele>1069</ele>
        <time>2016-10-15T12:50:51+02:00</time>
      </trkpt>
      <trkpt lat="45.33462" lon="3.68074">
        <ele>1070</ele>
        <time>2016-10-15T12:51:15+02:00</time>
      </trkpt>
      <trkpt lat="45.33438" lon="3.68054">
        <ele>1070</ele>
        <time>2016-10-15T12:51:45+02:00</time>
      </trkpt>
      <trkpt lat="45.33416" lon="3.68031">
        <ele>1071</ele>
        <time>2016-10-15T12:52:07+02:00</time>
      </trkpt>
      <trkpt lat="45.33399" lon="3.68008">
        <ele>1072</ele>
        <time>2016-10-15T12:52:39+02:00</time>
      </trkpt>
      <trkpt lat="45.33385" lon="3.67968">
        <ele>1072</ele>
        <time>2016-10-15T12:53:02+02:00</time>
      </trkpt>
      <trkpt lat="45.33376" lon="3.67936">
        <ele>1070</ele>
        <time>2016-10-15T12:53:33+02:00</time>
      </trkpt>
      <trkpt lat="45.33365" lon="3.67901">
        <ele>1068</ele>
        <time>2016-10-15T12:59:36+02:00</time>
      </trkpt>
      <trkpt lat="45.33354" lon="3.67864">
        <ele>1066</ele>
        <time>2016-10-15T13:00:09+02:00</time>
      </trkpt>
      <trkpt lat="45.33336" lon="3.67821">
        <ele>1063</ele>
        <time>2016-10-15T13:00:49+02:00</time>
      </trkpt>
      <trkpt lat="45.33321" lon="3.67792">
        <ele>1062</ele>
        <time>2016-10-15T13:00:59+02:00</time>
      </trkpt>
      <trkpt lat="45.333" lon="3.67772">
        <ele>1060</ele>
        <time>2016-10-15T13:01:27+02:00</time>
      </trkpt>
      <trkpt lat="45.33273" lon="3.67763">
        <ele>1056</ele>
        <time>2016-10-15T13:01:56+02:00</time>
      </trkpt>
      <trkpt lat="45.33251" lon="3.67738">
        <ele>1053</ele>
        <time>2016-10-15T13:02:19+02:00</time>
      </trkpt>
      <trkpt lat="45.33232" lon="3.67711">
        <ele>1054</ele>
        <time>2016-10-15T13:02:42+02:00</time>
      </trkpt>
      <trkpt lat="45.33208" lon="3.67691">
        <ele>1055</ele>
        <time>2016-10-15T13:03:08+02:00</time>
      </trkpt>
      <trkpt lat="45.33184" lon="3.67672">
        <ele>1055</ele>
        <time>2016-10-15T13:03:32+02:00</time>
      </trkpt>
      <trkpt lat="45.33164" lon="3.67645">
        <ele>1054</ele>
        <time>2016-10-15T13:03:58+02:00</time>
      </trkpt>
      <trkpt lat="45.33147" lon="3.67614">
        <ele>1050</ele>
        <time>2016-10-15T13:06:24+02:00</time>
      </trkpt>
      <trkpt lat="45.33096" lon="3.67592">
        <ele>1046</ele>
        <time>2016-10-15T13:07:14+02:00</time>
      </trkpt>
      <trkpt lat="45.33073" lon="3.67585">
        <ele>1044</ele>
        <time>2016-10-15T13:07:33+02:00</time>
      </trkpt>
      <trkpt lat="45.3304" lon="3.67569">
        <ele>1041</ele>
        <time>2016-10-15T13:08:10+02:00</time>
      </trkpt>
      <trkpt lat="45.33005" lon="3.67537">
        <ele>1038</ele>
        <time>2016-10-15T13:08:38+02:00</time>
      </trkpt>
      <trkpt lat="45.32996" lon="3.67502">
        <ele>1036</ele>
        <time>2016-10-15T13:10:02+02:00</time>
      </trkpt>
      <trkpt lat="45.32982" lon="3.67477">
        <ele>1034</ele>
        <time>2016-10-15T13:11:47+02:00</time>
      </trkpt>
      <trkpt lat="45.32958" lon="3.6746">
        <ele>1031</ele>
        <time>2016-10-15T13:12:31+02:00</time>
      </trkpt>
      <trkpt lat="45.3293" lon="3.67444">
        <ele>1028</ele>
        <time>2016-10-15T13:12:47+02:00</time>
      </trkpt>
      <trkpt lat="45.32908" lon="3.67429">
        <ele>1024</ele>
        <time>2016-10-15T13:13:14+02:00</time>
      </trkpt>
      <trkpt lat="45.32877" lon="3.67431">
        <ele>1020</ele>
        <time>2016-10-15T13:13:45+02:00</time>
      </trkpt>
      <trkpt lat="45.3285" lon="3.6744">
        <ele>1016</ele>
        <time>2016-10-15T13:14:23+02:00</time>
      </trkpt>
      <trkpt lat="45.32824" lon="3.67456">
        <ele>1014</ele>
        <time>2016-10-15T13:15:02+02:00</time>
      </trkpt>
      <trkpt lat="45.32802" lon="3.67461">
        <ele>1010</ele>
        <time>2016-10-15T13:16:05+02:00</time>
      </trkpt>
      <trkpt lat="45.32777" lon="3.67494">
        <ele>1007</ele>
        <time>2016-10-15T13:16:26+02:00</time>
      </trkpt>
      <trkpt lat="45.3275" lon="3.67489">
        <ele>1001</ele>
        <time>2016-10-15T13:16:58+02:00</time>
      </trkpt>
      <trkpt lat="45.32724" lon="3.67494">
        <ele>999</ele>
        <time>2016-10-15T13:17:41+02:00</time>
      </trkpt>
      <trkpt lat="45.32699" lon="3.67473">
        <ele>997</ele>
        <time>2016-10-15T13:18:01+02:00</time>
      </trkpt>
      <trkpt lat="45.32675" lon="3.67442">
        <ele>995</ele>
        <time>2016-10-15T13:19:48+02:00</time>
      </trkpt>
      <trkpt lat="45.32677" lon="3.67402">
        <ele>994</ele>
        <time>2016-10-15T13:20:16+02:00</time>
      </trkpt>
      <trkpt lat="45.32676" lon="3.67364">
        <ele>991</ele>
        <time>2016-10-15T13:20:37+02:00</time>
      </trkpt>
      <trkpt lat="45.32671" lon="3.67326">
        <ele>988</ele>
        <time>2016-10-15T13:21:09+02:00</time>
      </trkpt>
      <trkpt lat="45.32667" lon="3.67289">
        <ele>985</ele>
        <time>2016-10-15T13:21:29+02:00</time>
      </trkpt>
      <trkpt lat="45.3266" lon="3.67251">
        <ele>983</ele>
        <time>2016-10-15T13:21:51+02:00</time>
      </trkpt>
      <trkpt lat="45.32651" lon="3.67214">
        <ele>980</ele>
        <time>2016-10-15T13:22:19+02:00</time>
      </trkpt>
      <trkpt lat="45.32646" lon="3.67176">
        <ele>976</ele>
        <time>2016-10-15T13:22:44+02:00</time>
      </trkpt>
      <trkpt lat="45.32631" lon="3.67142">
        <ele>974</ele>
        <time>2016-10-15T13:24:00+02:00</time>
      </trkpt>
      <trkpt lat="45.32615" lon="3.67111">
        <ele>971</ele>
        <time>2016-10-15T13:24:25+02:00</time>
      </trkpt>
      <trkpt lat="45.326" lon="3.67078">
        <ele>969</ele>
        <time>2016-10-15T13:24:49+02:00</time>
      </trkpt>
      <trkpt lat="45.32584" lon="3.67048">
        <ele>966</ele>
        <time>2016-10-15T13:26:34+02:00</time>
      </trkpt>
      <trkpt lat="45.32578" lon="3.67015">
        <ele>964</ele>
        <time>2016-10-15T13:27:41+02:00</time>
      </trkpt>
      <trkpt lat="45.32571" lon="3.66977">
        <ele>963</ele>
        <time>2016-10-15T13:28:11+02:00</time>
      </trkpt>
      <trkpt lat="45.32563" lon="3.6694">
        <ele>960</ele>
        <time>2016-10-15T13:28:42+02:00</time>
      </trkpt>
      <trkpt lat="45.32549" lon="3.66906">
        <ele>956</ele>
        <time>2016-10-15T13:29:12+02:00</time>
      </trkpt>
      <trkpt lat="45.32541" lon="3.66869">
        <ele>952</ele>
        <time>2016-10-15T13:29:45+02:00</time>
      </trkpt>
      <trkpt lat="45.32527" lon="3.66835">
        <ele>947</ele>
        <time>2016-10-15T13:31:49+02:00</time>
      </trkpt>
      <trkpt lat="45.32501" lon="3.66873">
        <ele>949</ele>
        <time>2016-10-15T13:32:14+02:00</time>
      </trkpt>
      <trkpt lat="45.32483" lon="3.66903">
        <ele>951</ele>
        <time>2016-10-15T13:32:45+02:00</time>
      </trkpt>
      <trkpt lat="45.32467" lon="3.66935">
        <ele>952</ele>
        <time>2016-10-15T13:33:15+02:00</time>
      </trkpt>
      <trkpt lat="45.32453" lon="3.66967">
        <ele>954</ele>
        <time>2016-10-15T13:33:44+02:00</time>
      </trkpt>
      <trkpt lat="45.32435" lon="3.67001">
        <ele>955</ele>
        <time>2016-10-15T13:34:12+02:00</time>
      </trkpt>
      <trkpt lat="45.32428" lon="3.67041">
        <ele>956</ele>
        <time>2016-10-15T13:34:41+02:00</time>
      </trkpt>
      <trkpt lat="45.32426" lon="3.67078">
        <ele>957</ele>
        <time>2016-10-15T13:35:07+02:00</time>
      </trkpt>
      <trkpt lat="45.32425" lon="3.67106">
        <ele>957</ele>
        <time>2016-10-15T13:42:55+02:00</time>
      </trkpt>
      <trkpt lat="45.3242" lon="3.67143">
        <ele>957</ele>
        <time>2016-10-15T14:24:17+02:00</time>
      </trkpt>
      <trkpt lat="45.32408" lon="3.67183">
        <ele>958</ele>
        <time>2016-10-15T14:25:01+02:00</time>
      </trkpt>
      <trkpt lat="45.32389" lon="3.6718">
        <ele>959</ele>
        <time>2016-10-15T14:27:05+02:00</time>
      </trkpt>
      <trkpt lat="45.32351" lon="3.67168">
        <ele>960</ele>
        <time>2016-10-15T14:27:30+02:00</time>
      </trkpt>
      <trkpt lat="45.32337" lon="3.67146">
        <ele>961</ele>
        <time>2016-10-15T14:28:00+02:00</time>
      </trkpt>
      <trkpt lat="45.32312" lon="3.67129">
        <ele>962</ele>
        <time>2016-10-15T14:28:22+02:00</time>
      </trkpt>
      <trkpt lat="45.32286" lon="3.67119">
        <ele>964</ele>
        <time>2016-10-15T14:28:50+02:00</time>
      </trkpt>
      <trkpt lat="45.3226" lon="3.67113">
        <ele>966</ele>
        <time>2016-10-15T14:29:15+02:00</time>
      </trkpt>
      <trkpt lat="45.32232" lon="3.67106">
        <ele>967</ele>
        <time>2016-10-15T14:29:43+02:00</time>
      </trkpt>
      <trkpt lat="45.3221" lon="3.67108">
        <ele>967</ele>
        <time>2016-10-15T14:30:06+02:00</time>
      </trkpt>
      <trkpt lat="45.32178" lon="3.67108">
        <ele>968</ele>
        <time>2016-10-15T14:30:37+02:00</time>
      </trkpt>
      <trkpt lat="45.3215" lon="3.67106">
        <ele>967</ele>
        <time>2016-10-15T14:31:05+02:00</time>
      </trkpt>
      <trkpt lat="45.32122" lon="3.67105">
        <ele>967</ele>
        <time>2016-10-15T14:32:19+02:00</time>
      </trkpt>
      <trkpt lat="45.32095" lon="3.67103">
        <ele>966</ele>
        <time>2016-10-15T14:32:50+02:00</time>
      </trkpt>
      <trkpt lat="45.32069" lon="3.67114">
        <ele>966</ele>
        <time>2016-10-15T14:34:41+02:00</time>
      </trkpt>
      <trkpt lat="45.32042" lon="3.67104">
        <ele>964</ele>
        <time>2016-10-15T14:36:47+02:00</time>
      </trkpt>
      <trkpt lat="45.32017" lon="3.6709">
        <ele>963</ele>
        <time>2016-10-15T14:37:17+02:00</time>
      </trkpt>
      <trkpt lat="45.31993" lon="3.6707">
        <ele>961</ele>
        <time>2016-10-15T14:37:39+02:00</time>
      </trkpt>
      <trkpt lat="45.31966" lon="3.67063">
        <ele>958</ele>
        <time>2016-10-15T14:38:47+02:00</time>
      </trkpt>
      <trkpt lat="45.31937" lon="3.6706">
        <ele>956</ele>
        <time>2016-10-15T14:39:40+02:00</time>
      </trkpt>
      <trkpt lat="45.31912" lon="3.67043">
        <ele>953</ele>
        <time>2016-10-15T14:40:09+02:00</time>
      </trkpt>
      <trkpt lat="45.3189" lon="3.67017">
        <ele>950</ele>
        <time>2016-10-15T14:40:34+02:00</time>
      </trkpt>
      <trkpt lat="45.31867" lon="3.66994">
        <ele>948</ele>
        <time>2016-10-15T14:41:47+02:00</time>
      </trkpt>
      <trkpt lat="45.31841" lon="3.67005">
        <ele>947</ele>
        <time>2016-10-15T14:42:11+02:00</time>
      </trkpt>
      <trkpt lat="45.31816" lon="3.67019">
        <ele>946</ele>
        <time>2016-10-15T14:42:33+02:00</time>
      </trkpt>
      <trkpt lat="45.3179" lon="3.67034">
        <ele>945</ele>
        <time>2016-10-15T14:42:59+02:00</time>
      </trkpt>
      <trkpt lat="45.31763" lon="3.67047">
        <ele>945</ele>
        <time>2016-10-15T14:43:20+02:00</time>
      </trkpt>
      <trkpt lat="45.31739" lon="3.6703">
        <ele>943</ele>
        <time>2016-10-15T14:43:48+02:00</time>
      </trkpt>
      <trkpt lat="45.31717" lon="3.67006">
        <ele>943</ele>
        <time>2016-10-15T14:44:13+02:00</time>
      </trkpt>
      <trkpt lat="45.31695" lon="3.66982">
        <ele>941</ele>
        <time>2016-10-15T14:44:40+02:00</time>
      </trkpt>
      <trkpt lat="45.3167" lon="3.6696">
        <ele>939</ele>
        <time>2016-10-15T14:45:09+02:00</time>
      </trkpt>
      <trkpt lat="45.31649" lon="3.66935">
        <ele>936</ele>
        <time>2016-10-15T14:45:27+02:00</time>
      </trkpt>
      <trkpt lat="45.31625" lon="3.66917">
        <ele>934</ele>
        <time>2016-10-15T14:46:00+02:00</time>
      </trkpt>
      <trkpt lat="45.31601" lon="3.66898">
        <ele>931</ele>
        <time>2016-10-15T14:46:26+02:00</time>
      </trkpt>
      <trkpt lat="45.31575" lon="3.66885">
        <ele>929</ele>
        <time>2016-10-15T14:46:53+02:00</time>
      </trkpt>
      <trkpt lat="45.3155" lon="3.6687">
        <ele>925</ele>
        <time>2016-10-15T14:47:23+02:00</time>
      </trkpt>
      <trkpt lat="45.31523" lon="3.66866">
        <ele>922</ele>
        <time>2016-10-15T14:47:46+02:00</time>
      </trkpt>
      <trkpt lat="45.31496" lon="3.66867">
        <ele>920</ele>
        <time>2016-10-15T14:48:17+02:00</time>
      </trkpt>
      <trkpt lat="45.31475" lon="3.6687">
        <ele>919</ele>
        <time>2016-10-15T14:50:15+02:00</time>
      </trkpt>
      <trkpt lat="45.31466" lon="3.66893">
        <ele>919</ele>
        <time>2016-10-15T14:52:21+02:00</time>
      </trkpt>
      <trkpt lat="45.31454" lon="3.66928">
        <ele>919</ele>
        <time>2016-10-15T14:53:06+02:00</time>
      </trkpt>
      <trkpt lat="45.31454" lon="3.66946">
        <ele>920</ele>
      </trkpt>
      <trkpt lat="45.31439" lon="3.6696">
        <ele>921</ele>
        <time>2016-10-15T14:53:38+02:00</time>
      </trkpt>
      <trkpt lat="45.31422" lon="3.66991">
        <ele>925</ele>
        <time>2016-10-15T14:54:11+02:00</time>
      </trkpt>
      <trkpt lat="45.3142" lon="3.67017">
        <ele>927</ele>
        <time>2016-10-15T14:54:54+02:00</time>
      </trkpt>
      <trkpt lat="45.31443" lon="3.67062">
        <ele>929</ele>
        <time>2016-10-15T14:56:32+02:00</time>
      </trkpt>
      <trkpt lat="45.31451" lon="3.67099">
        <ele>931</ele>
        <time>2016-10-15T14:56:59+02:00</time>
      </trkpt>
      <trkpt lat="45.31457" lon="3.67138">
        <ele>933</ele>
        <time>2016-10-15T14:57:28+02:00</time>
      </trkpt>
      <trkpt lat="45.31459" lon="3.67176">
        <ele>935</ele>
        <time>2016-10-15T14:57:56+02:00</time>
      </trkpt>
      <trkpt lat="45.31451" lon="3.67213">
        <ele>938</ele>
        <time>2016-10-15T14:58:23+02:00</time>
      </trkpt>
      <trkpt lat="45.31448" lon="3.67253">
        <ele>940</ele>
        <time>2016-10-15T14:59:00+02:00</time>
      </trkpt>
      <trkpt lat="45.31445" lon="3.6729">
        <ele>943</ele>
        <time>2016-10-15T14:59:24+02:00</time>
      </trkpt>
      <trkpt lat="45.31432" lon="3.67326">
        <ele>944</ele>
        <time>2016-10-15T14:59:55+02:00</time>
      </trkpt>
      <trkpt lat="45.31419" lon="3.67359">
        <ele>946</ele>
        <time>2016-10-15T15:00:23+02:00</time>
      </trkpt>
      <trkpt lat="45.31405" lon="3.67405">
        <ele>949</ele>
        <time>2016-10-15T15:00:54+02:00</time>
      </trkpt>
      <trkpt lat="45.31423" lon="3.67448">
        <ele>954</ele>
        <time>2016-10-15T15:01:19+02:00</time>
      </trkpt>
      <trkpt lat="45.31439" lon="3.67492">
        <ele>957</ele>
        <time>2016-10-15T15:02:54+02:00</time>
      </trkpt>
      <trkpt lat="45.31442" lon="3.6753">
        <ele>960</ele>
        <time>2016-10-15T15:03:16+02:00</time>
      </trkpt>
      <trkpt lat="45.31439" lon="3.6757">
        <ele>961</ele>
        <time>2016-10-15T15:06:45+02:00</time>
      </trkpt>
      <trkpt lat="45.31436" lon="3.67625">
        <ele>964</ele>
        <time>2016-10-15T15:07:16+02:00</time>
      </trkpt>
      <trkpt lat="45.31441" lon="3.6769">
        <ele>968</ele>
        <time>2016-10-15T15:08:28+02:00</time>
      </trkpt>
      <trkpt lat="45.31449" lon="3.67716">
        <ele>969</ele>
        <time>2016-10-15T15:09:53+02:00</time>
      </trkpt>
      <trkpt lat="45.31465" lon="3.6775">
        <ele>972</ele>
        <time>2016-10-15T15:10:21+02:00</time>
      </trkpt>
      <trkpt lat="45.31479" lon="3.67784">
        <ele>972</ele>
        <time>2016-10-15T15:10:48+02:00</time>
      </trkpt>
      <trkpt lat="45.31493" lon="3.67818">
        <ele>972</ele>
        <time>2016-10-15T15:11:29+02:00</time>
      </trkpt>
      <trkpt lat="45.31509" lon="3.67849">
        <ele>972</ele>
        <time>2016-10-15T15:11:53+02:00</time>
      </trkpt>
      <trkpt lat="45.3152" lon="3.67886">
        <ele>972</ele>
        <time>2016-10-15T15:12:21+02:00</time>
      </trkpt>
      <trkpt lat="45.31538" lon="3.67915">
        <ele>972</ele>
        <time>2016-10-15T15:12:46+02:00</time>
      </trkpt>
      <trkpt lat="45.31549" lon="3.67951">
        <ele>974</ele>
        <time>2016-10-15T15:13:25+02:00</time>
      </trkpt>
      <trkpt lat="45.31562" lon="3.67984">
        <ele>976</ele>
        <time>2016-10-15T15:13:55+02:00</time>
      </trkpt>
      <trkpt lat="45.31579" lon="3.68016">
        <ele>978</ele>
        <time>2016-10-15T15:14:23+02:00</time>
      </trkpt>
      <trkpt lat="45.31593" lon="3.68048">
        <ele>981</ele>
        <time>2016-10-15T15:15:22+02:00</time>
      </trkpt>
      <trkpt lat="45.31611" lon="3.68079">
        <ele>984</ele>
        <time>2016-10-15T15:15:49+02:00</time>
      </trkpt>
      <trkpt lat="45.31627" lon="3.68111">
        <ele>987</ele>
        <time>2016-10-15T15:16:20+02:00</time>
      </trkpt>
      <trkpt lat="45.31641" lon="3.68143">
        <ele>990</ele>
        <time>2016-10-15T15:16:56+02:00</time>
      </trkpt>
      <trkpt lat="45.31653" lon="3.68178">
        <ele>993</ele>
        <time>2016-10-15T15:17:28+02:00</time>
      </trkpt>
      <trkpt lat="45.31671" lon="3.68208">
        <ele>995</ele>
        <time>2016-10-15T15:18:13+02:00</time>
      </trkpt>
      <trkpt lat="45.31689" lon="3.68238">
        <ele>997</ele>
        <time>2016-10-15T15:18:44+02:00</time>
      </trkpt>
      <trkpt lat="45.31702" lon="3.68262">
        <ele>999</ele>
        <time>2016-10-15T15:19:11+02:00</time>
      </trkpt>
      <trkpt lat="45.31713" lon="3.68301">
        <ele>1003</ele>
        <time>2016-10-15T15:19:50+02:00</time>
      </trkpt>
      <trkpt lat="45.31729" lon="3.68332">
        <ele>1007</ele>
        <time>2016-10-15T15:20:23+02:00</time>
      </trkpt>
      <trkpt lat="45.31749" lon="3.68359">
        <ele>1009</ele>
        <time>2016-10-15T15:22:25+02:00</time>
      </trkpt>
      <trkpt lat="45.31759" lon="3.68395">
        <ele>1012</ele>
        <time>2016-10-15T15:22:57+02:00</time>
      </trkpt>
      <trkpt lat="45.31769" lon="3.68432">
        <ele>1015</ele>
        <time>2016-10-15T15:23:28+02:00</time>
      </trkpt>
      <trkpt lat="45.31781" lon="3.68467">
        <ele>1016</ele>
        <time>2016-10-15T15:23:52+02:00</time>
      </trkpt>
      <trkpt lat="45.31789" lon="3.68505">
        <ele>1018</ele>
        <time>2016-10-15T15:24:19+02:00</time>
      </trkpt>
      <trkpt lat="45.31796" lon="3.68543">
        <ele>1020</ele>
        <time>2016-10-15T15:24:51+02:00</time>
      </trkpt>
      <trkpt lat="45.318" lon="3.68582">
        <ele>1024</ele>
        <time>2016-10-15T15:26:22+02:00</time>
      </trkpt>
      <trkpt lat="45.31807" lon="3.68619">
        <ele>1026</ele>
        <time>2016-10-15T15:26:49+02:00</time>
      </trkpt>
      <trkpt lat="45.31814" lon="3.68658">
        <ele>1028</ele>
        <time>2016-10-15T15:27:16+02:00</time>
      </trkpt>
      <trkpt lat="45.3182" lon="3.68696">
        <ele>1030</ele>
        <time>2016-10-15T15:27:42+02:00</time>
      </trkpt>
      <trkpt lat="45.31826" lon="3.68728">
        <ele>1032</ele>
        <time>2016-10-15T15:30:51+02:00</time>
      </trkpt>
      <trkpt lat="45.31826" lon="3.6877">
        <ele>1034</ele>
        <time>2016-10-15T15:31:26+02:00</time>
      </trkpt>
      <trkpt lat="45.31829" lon="3.6881">
        <ele>1036</ele>
        <time>2016-10-15T15:31:53+02:00</time>
      </trkpt>
      <trkpt lat="45.31831" lon="3.68849">
        <ele>1036</ele>
        <time>2016-10-15T15:32:24+02:00</time>
      </trkpt>
      <trkpt lat="45.31823" lon="3.68886">
        <ele>1036</ele>
        <time>2016-10-15T15:32:45+02:00</time>
      </trkpt>
      <trkpt lat="45.31818" lon="3.68924">
        <ele>1036</ele>
        <time>2016-10-15T15:33:11+02:00</time>
      </trkpt>
      <trkpt lat="45.31813" lon="3.68963">
        <ele>1037</ele>
        <time>2016-10-15T15:33:37+02:00</time>
      </trkpt>
      <trkpt lat="45.31807" lon="3.69001">
        <ele>1037</ele>
        <time>2016-10-15T15:34:03+02:00</time>
      </trkpt>
      <trkpt lat="45.31802" lon="3.69039">
        <ele>1038</ele>
        <time>2016-10-15T15:34:28+02:00</time>
      </trkpt>
      <trkpt lat="45.31806" lon="3.69077">
        <ele>1038</ele>
        <time>2016-10-15T15:35:48+02:00</time>
      </trkpt>
      <trkpt lat="45.31813" lon="3.69116">
        <ele>1039</ele>
        <time>2016-10-15T15:36:22+02:00</time>
      </trkpt>
      <trkpt lat="45.31822" lon="3.69153">
        <ele>1039</ele>
        <time>2016-10-15T15:36:42+02:00</time>
      </trkpt>
      <trkpt lat="45.31828" lon="3.69191">
        <ele>1040</ele>
        <time>2016-10-15T15:37:06+02:00</time>
      </trkpt>
      <trkpt lat="45.31827" lon="3.6923">
        <ele>1042</ele>
        <time>2016-10-15T15:37:33+02:00</time>
      </trkpt>
      <trkpt lat="45.31823" lon="3.69269">
        <ele>1044</ele>
        <time>2016-10-15T15:38:06+02:00</time>
      </trkpt>
      <trkpt lat="45.3182" lon="3.69307">
        <ele>1045</ele>
        <time>2016-10-15T15:38:34+02:00</time>
      </trkpt>
      <trkpt lat="45.31808" lon="3.69359">
        <ele>1049</ele>
        <time>2016-10-15T15:39:00+02:00</time>
      </trkpt>
      <trkpt lat="45.31814" lon="3.69384">
        <ele>1050</ele>
      </trkpt>
      <trkpt lat="45.31822" lon="3.69403">
        <ele>1050</ele>
        <time>2016-10-15T15:39:31+02:00</time>
      </trkpt>
      <trkpt lat="45.31833" lon="3.69416">
        <ele>1050</ele>
        <time>2016-10-15T15:39:59+02:00</time>
      </trkpt>
      <trkpt lat="45.31852" lon="3.69444">
        <ele>1051</ele>
        <time>2016-10-15T15:40:37+02:00</time>
      </trkpt>
      <trkpt lat="45.31875" lon="3.69466">
        <ele>1052</ele>
        <time>2016-10-15T15:41:32+02:00</time>
      </trkpt>
      <trkpt lat="45.319" lon="3.69481">
        <ele>1052</ele>
        <time>2016-10-15T15:42:04+02:00</time>
      </trkpt>
      <trkpt lat="45.31926" lon="3.69493">
        <ele>1053</ele>
        <time>2016-10-15T15:42:30+02:00</time>
      </trkpt>
      <trkpt lat="45.31953" lon="3.69503">
        <ele>1054</ele>
        <time>2016-10-15T15:43:00+02:00</time>
      </trkpt>
      <trkpt lat="45.3198" lon="3.69508">
        <ele>1055</ele>
        <time>2016-10-15T15:43:22+02:00</time>
      </trkpt>
      <trkpt lat="45.32007" lon="3.69515">
        <ele>1057</ele>
        <time>2016-10-15T15:43:52+02:00</time>
      </trkpt>
      <trkpt lat="45.32034" lon="3.69518">
        <ele>1059</ele>
        <time>2016-10-15T15:44:22+02:00</time>
      </trkpt>
      <trkpt lat="45.32061" lon="3.69512">
        <ele>1060</ele>
        <time>2016-10-15T15:44:48+02:00</time>
      </trkpt>
      <trkpt lat="45.32085" lon="3.69491">
        <ele>1059</ele>
        <time>2016-10-15T15:45:21+02:00</time>
      </trkpt>
      <trkpt lat="45.32106" lon="3.69515">
        <ele>1062</ele>
        <time>2016-10-15T15:45:49+02:00</time>
      </trkpt>
      <trkpt lat="45.32107" lon="3.69538">
        <ele>1064</ele>
        <time>2016-10-15T15:48:12+02:00</time>
      </trkpt>
      <trkpt lat="45.32085" lon="3.69551">
        <ele>1065</ele>
        <time>2016-10-15T15:48:50+02:00</time>
      </trkpt>
      <trkpt lat="45.32053" lon="3.69561">
        <ele>1065</ele>
        <time>2016-10-15T15:50:40+02:00</time>
      </trkpt>
      <trkpt lat="45.32047" lon="3.69588">
        <ele>1068</ele>
        <time>2016-10-15T15:51:05+02:00</time>
      </trkpt>
      <trkpt lat="45.32035" lon="3.69598">
        <ele>1069</ele>
      </trkpt>
      <trkpt lat="45.32029" lon="3.69628">
        <ele>1071</ele>
      </trkpt>
      <trkpt lat="45.32029" lon="3.69661">
        <ele>1073</ele>
        <time>2016-10-15T15:52:02+02:00</time>
      </trkpt>
      <trkpt lat="45.32031" lon="3.69722">
        <ele>1074</ele>
        <time>2016-10-15T15:52:35+02:00</time>
      </trkpt>
      <trkpt lat="45.32021" lon="3.69754">
        <ele>1075</ele>
        <time>2016-10-15T15:53:13+02:00</time>
      </trkpt>
      <trkpt lat="45.32012" lon="3.698">
        <ele>1075</ele>
        <time>2016-10-15T15:53:50+02:00</time>
      </trkpt>
      <trkpt lat="45.31972" lon="3.69793">
        <ele>1076</ele>
        <time>2016-10-15T15:54:20+02:00</time>
      </trkpt>
      <trkpt lat="45.31945" lon="3.69773">
        <ele>1077</ele>
        <time>2016-10-15T15:54:45+02:00</time>
      </trkpt>
      <trkpt lat="45.31919" lon="3.69754">
        <ele>1078</ele>
        <time>2016-10-15T15:55:12+02:00</time>
      </trkpt>
      <trkpt lat="45.31895" lon="3.69738">
        <ele>1079</ele>
        <time>2016-10-15T15:55:41+02:00</time>
      </trkpt>
      <trkpt lat="45.31869" lon="3.69709">
        <ele>1079</ele>
        <time>2016-10-15T15:56:06+02:00</time>
      </trkpt>
      <trkpt lat="45.31849" lon="3.69693">
        <ele>1079</ele>
        <time>2016-10-15T15:56:30+02:00</time>
      </trkpt>
      <trkpt lat="45.31823" lon="3.6967">
        <ele>1079</ele>
        <time>2016-10-15T15:56:54+02:00</time>
      </trkpt>
      <trkpt lat="45.31801" lon="3.69654">
        <ele>1079</ele>
        <time>2016-10-15T15:57:20+02:00</time>
      </trkpt>
      <trkpt lat="45.31776" lon="3.69647">
        <ele>1079</ele>
        <time>2016-10-15T15:57:46+02:00</time>
      </trkpt>
      <trkpt lat="45.31753" lon="3.69643">
        <ele>1079</ele>
        <time>2016-10-15T15:58:13+02:00</time>
      </trkpt>
      <trkpt lat="45.31727" lon="3.69649">
        <ele>1081</ele>
        <time>2016-10-15T15:58:42+02:00</time>
      </trkpt>
      <trkpt lat="45.31698" lon="3.6965">
        <ele>1082</ele>
        <time>2016-10-15T15:59:08+02:00</time>
      </trkpt>
      <trkpt lat="45.31651" lon="3.69652">
        <ele>1083</ele>
        <time>2016-10-15T15:59:41+02:00</time>
      </trkpt>
      <trkpt lat="45.31629" lon="3.69679">
        <ele>1085</ele>
        <time>2016-10-15T16:00:23+02:00</time>
      </trkpt>
    </trkseg>
  </trk>
</gpx>